Terminal Aerodrome Forecast
Issued by NWS

Current Version | Previous Version | Text Only | Print | Product List | Glossary Off
Versions: 1 2 3 4 5 6 7 8 9 10 11 12 13 14 15 16 17 18 19 20 21 22 23 24 25 26

981
FTUS41 KRLX 251457 AAA
TAFCKB
TAF AMD
KCKB 251457Z 2515/2612 00000KT P6SM SCT015
      TEMPO 2515/2516 BKN015
     FM261000 00000KT 5SM BR SCT250=

USA.gov is the U.S. government's official web portal to all federal, state and local government web resources and services.